Time;durP1;ratioP1;P1;durP2;ratioP2;P2;SDS_P1;SDS_P2;PMS_P1;PMS_P2;Temp;Humidity;BMP_temperature;BMP_pressure;BME280_temperature;BME280_humidity;BME280_pressure;Samples;Min_cycle;Max_cycle;Signal;HPM_P1;HPM_P2
2023/07/02 00:02:24;;;;;;;9.10;4.60;;;;;;;16.94;77.81;100604.84;5030731;28;20022;-89
2023/07/02 00:04:49;;;;;;;7.78;4.10;;;;;;;16.93;77.61;100608.41;5026818;28;20116;-88
2023/07/02 00:07:14;;;;;;;9.57;4.05;;;;;;;16.91;78.18;100605.06;5029037;28;20022;-88
2023/07/02 00:09:40;;;;;;;8.32;4.22;;;;;;;16.89;78.11;100597.22;5029918;28;20049;-88
2023/07/02 00:12:06;;;;;;;8.13;4.03;;;;;;;16.89;77.90;100601.66;5011659;28;20025;-88
2023/07/02 00:14:31;;;;;;;9.25;4.20;;;;;;;16.86;77.79;100596.56;5023566;28;20067;-88
2023/07/02 00:16:56;;;;;;;8.45;4.32;;;;;;;16.87;77.88;100603.53;5028936;28;20101;-88
2023/07/02 00:19:22;;;;;;;11.15;4.63;;;;;;;16.84;77.74;100600.13;5027151;28;20083;-89
2023/07/02 00:21:48;;;;;;;7.40;3.97;;;;;;;16.83;78.21;100601.06;5029622;28;20036;-88
2023/07/02 00:24:13;;;;;;;7.70;4.07;;;;;;;16.81;78.03;100595.03;5028900;28;20026;-89
2023/07/02 00:26:39;;;;;;;10.13;4.30;;;;;;;16.79;77.81;100581.13;5027538;28;20107;-88
2023/07/02 00:29:06;;;;;;;11.05;4.90;;;;;;;16.77;77.87;100572.50;5024952;28;20030;-88
2023/07/02 00:31:32;;;;;;;8.55;4.38;;;;;;;16.73;77.92;100555.22;5030510;28;20086;-87
2023/07/02 00:33:57;;;;;;;10.63;4.88;;;;;;;16.69;77.90;100543.19;5028952;28;20025;-87
2023/07/02 00:36:22;;;;;;;8.80;5.07;;;;;;;16.64;77.43;100564.47;5031145;28;20031;-89
2023/07/02 00:38:48;;;;;;;10.40;4.88;;;;;;;16.62;77.84;100586.47;5029036;28;20033;-89
2023/07/02 00:41:14;;;;;;;10.00;4.97;;;;;;;16.61;77.84;100592.66;5031098;28;20092;-88
2023/07/02 00:43:43;;;;;;;11.68;5.13;;;;;;;16.61;77.67;100597.91;5028025;28;20112;-89
2023/07/02 00:46:17;;;;;;;10.65;5.22;;;;;;;16.61;77.70;100597.91;5009634;28;20065;-88
2023/07/02 00:48:43;;;;;;;10.23;4.85;;;;;;;16.62;77.61;100608.34;5009483;28;20025;-88
2023/07/02 00:51:09;;;;;;;11.60;5.22;;;;;;;16.63;77.45;100614.44;5027317;28;20418;-88
2023/07/02 00:53:35;;;;;;;11.38;5.40;;;;;;;16.62;77.43;100610.13;5026983;28;20095;-89
2023/07/02 00:56:00;;;;;;;10.73;5.88;;;;;;;16.59;77.40;100615.53;5028387;28;20063;-88
2023/07/02 00:58:25;;;;;;;11.15;5.50;;;;;;;16.59;77.41;100623.41;5010420;28;20516;-88
2023/07/02 01:00:50;;;;;;;12.80;5.80;;;;;;;16.58;77.41;100619.09;5028541;28;20030;-88
2023/07/02 01:03:16;;;;;;;11.88;5.55;;;;;;;16.57;77.36;100623.50;5028814;28;20465;-86
2023/07/02 01:05:41;;;;;;;13.35;5.78;;;;;;;16.58;77.42;100624.34;5029284;28;20067;-89
2023/07/02 01:08:07;;;;;;;12.77;5.90;;;;;;;16.56;77.37;100619.19;5029695;28;20029;-88
2023/07/02 01:10:35;;;;;;;12.80;5.80;;;;;;;16.57;77.64;100627.94;5027822;28;20030;-88
2023/07/02 01:13:05;;;;;;;11.82;5.80;;;;;;;16.55;77.42;100620.13;5010207;28;20029;-88
2023/07/02 01:15:32;;;;;;;13.63;6.63;;;;;;;16.56;77.41;100626.22;5029325;28;20095;-88
2023/07/02 01:17:57;;;;;;;14.32;6.07;;;;;;;16.54;77.35;100621.91;5027521;28;20047;-89
2023/07/02 01:20:25;;;;;;;13.10;6.32;;;;;;;16.53;77.33;100625.47;5025060;28;20037;-88
2023/07/02 01:22:51;;;;;;;14.57;6.15;;;;;;;16.53;77.16;100633.34;5027291;28;20513;-88
2023/07/02 01:25:17;;;;;;;14.82;6.90;;;;;;;16.52;77.48;100628.16;5027940;28;20025;-88
2023/07/02 01:27:43;;;;;;;12.30;6.53;;;;;;;16.51;77.65;100624.69;5030460;28;20069;-88
2023/07/02 01:30:09;;;;;;;14.98;7.05;;;;;;;16.51;77.40;100631.72;5027614;28;20048;-88
2023/07/02 01:32:35;;;;;;;15.27;6.85;;;;;;;16.49;77.74;100626.56;5028137;28;20029;-88
2023/07/02 01:35:00;;;;;;;14.05;7.05;;;;;;;16.50;77.39;100635.25;5028118;28;20097;-88
2023/07/02 01:37:26;;;;;;;18.83;7.43;;;;;;;16.47;77.53;100628.41;5028361;28;20381;-88
2023/07/02 01:39:51;;;;;;;15.30;7.32;;;;;;;16.45;77.58;100632.91;5029451;28;20464;-88
2023/07/02 01:42:20;;;;;;;16.77;7.90;;;;;;;16.43;77.74;100636.53;5028305;28;20045;-88
2023/07/02 01:44:51;;;;;;;15.23;7.63;;;;;;;16.41;77.79;100638.41;5028238;28;20033;-88
2023/07/02 01:47:16;;;;;;;15.63;7.53;;;;;;;16.40;78.20;100642.78;5026202;28;20029;-88
2023/07/02 01:49:41;;;;;;;14.57;7.78;;;;;;;16.38;78.12;100636.81;5009401;28;20083;-89
2023/07/02 01:52:07;;;;;;;15.02;8.13;;;;;;;16.37;78.18;100653.47;5029455;28;20026;-89
2023/07/02 01:54:33;;;;;;;15.00;7.72;;;;;;;16.36;78.49;100646.53;5031479;28;20033;-88
2023/07/02 01:56:59;;;;;;;16.35;8.25;;;;;;;16.35;78.40;100639.59;5031113;28;20029;-89
2023/07/02 01:59:25;;;;;;;15.82;7.72;;;;;;;16.33;78.55;100642.28;5030398;28;20047;-88
2023/07/02 02:01:50;;;;;;;15.85;8.02;;;;;;;16.31;78.74;100644.13;5030018;28;20028;-90
2023/07/02 02:04:16;;;;;;;17.13;7.82;;;;;;;16.31;78.93;100645.91;5032419;28;20511;-89
2023/07/02 02:06:41;;;;;;;16.40;8.13;;;;;;;16.29;79.12;100646.00;5028596;28;20163;-87
2023/07/02 02:09:09;;;;;;;15.50;8.50;;;;;;;16.26;79.29;100645.31;5031274;28;20033;-89
2023/07/02 02:11:36;;;;;;;17.80;8.55;;;;;;;16.25;79.21;100644.47;5013021;28;20503;-89
2023/07/02 02:14:02;;;;;;;15.60;8.23;;;;;;;16.24;79.27;100648.84;5031582;28;20037;-89
2023/07/02 02:16:27;;;;;;;16.02;7.97;;;;;;;16.23;79.31;100641.91;5029750;28;20449;-89
2023/07/02 02:18:53;;;;;;;16.52;8.30;;;;;;;16.26;79.20;100645.31;5032981;28;20029;-88
2023/07/02 02:21:19;;;;;;;19.55;8.50;;;;;;;16.26;79.54;100650.56;5030315;28;20034;-88
2023/07/02 02:23:44;;;;;;;19.05;8.90;;;;;;;16.24;79.37;100648.84;5031370;28;20033;-89
2023/07/02 02:26:10;;;;;;;17.65;8.32;;;;;;;16.22;79.53;100645.50;5032455;28;20065;-88
2023/07/02 02:28:35;;;;;;;18.65;8.95;;;;;;;16.20;79.50;100652.59;5032221;28;20032;-89
2023/07/02 02:31:01;;;;;;;19.63;8.90;;;;;;;16.17;79.57;100651.88;5030564;28;20481;-89
2023/07/02 02:33:26;;;;;;;17.85;8.60;;;;;;;16.15;79.45;100651.97;5032610;28;20372;-88
2023/07/02 02:35:51;;;;;;;18.13;8.48;;;;;;;16.13;79.90;100651.22;5030496;28;20076;-88
2023/07/02 02:38:17;;;;;;;18.40;8.73;;;;;;;16.10;79.74;100661.03;5030213;28;20021;-88
2023/07/02 02:40:42;;;;;;;17.35;8.50;;;;;;;16.08;79.87;100658.47;5031135;28;20484;-89
2023/07/02 02:43:07;;;;;;;18.33;8.60;;;;;;;16.06;79.74;100657.69;5030574;28;20044;-89
2023/07/02 02:45:32;;;;;;;20.48;8.90;;;;;;;16.03;80.03;100655.25;5030713;28;20076;-89
2023/07/02 02:47:58;;;;;;;17.83;8.85;;;;;;;16.01;80.07;100657.94;5029108;28;20031;-88
2023/07/02 02:50:23;;;;;;;15.90;8.23;;;;;;;15.99;80.04;100667.66;5030688;28;20022;-88
2023/07/02 02:52:48;;;;;;;22.52;9.07;;;;;;;15.97;80.23;100673.91;5012005;28;20025;-88
2023/07/02 02:55:14;;;;;;;18.70;9.10;;;;;;;15.94;80.21;100672.31;5028886;28;20026;-88
2023/07/02 02:57:39;;;;;;;18.88;9.02;;;;;;;15.92;80.32;100676.78;5029559;28;20025;-88
2023/07/02 03:00:05;;;;;;;19.33;8.75;;;;;;;15.92;80.40;100682.03;5029796;28;20376;-88
2023/07/02 03:02:31;;;;;;;17.52;9.23;;;;;;;15.90;80.48;100676.00;5029639;28;20040;-88
2023/07/02 03:04:56;;;;;;;18.50;8.90;;;;;;;15.88;80.84;100678.72;5027896;28;20029;-88
2023/07/02 03:07:22;;;;;;;17.17;8.65;;;;;;;15.88;80.69;100688.34;5032209;28;20480;-88
2023/07/02 03:09:47;;;;;;;18.15;9.00;;;;;;;15.85;80.79;100678.88;5029818;28;20022;-88
2023/07/02 03:12:13;;;;;;;20.08;9.20;;;;;;;15.83;80.66;100691.19;5032611;28;20540;-88
2023/07/02 03:14:38;;;;;;;18.05;8.95;;;;;;;15.82;81.12;100693.88;5031548;28;20441;-88
2023/07/02 03:17:03;;;;;;;17.77;9.13;;;;;;;15.78;81.07;100694.03;5029758;28;20037;-88
2023/07/02 03:19:29;;;;;;;19.30;9.52;;;;;;;15.76;81.13;100690.66;5030231;28;20372;-88
2023/07/02 03:21:54;;;;;;;20.65;9.48;;;;;;;15.73;81.22;100692.56;5030804;28;20033;-88
2023/07/02 03:24:19;;;;;;;18.98;8.93;;;;;;;15.72;81.43;100704.84;5030425;28;20078;-88
2023/07/02 03:26:45;;;;;;;20.13;8.70;;;;;;;15.70;81.48;100701.44;5031715;28;20037;-87
2023/07/02 03:29:11;;;;;;;18.08;8.90;;;;;;;15.68;81.53;100702.44;5010852;28;20061;-88
2023/07/02 03:31:36;;;;;;;19.35;9.38;;;;;;;15.68;81.26;100702.44;5030064;28;20032;-88
2023/07/02 03:34:06;;;;;;;19.38;9.48;;;;;;;15.67;81.36;100708.63;5030526;28;20025;-88
2023/07/02 03:36:31;;;;;;;19.38;8.82;;;;;;;15.65;80.93;100708.66;5030925;28;20018;-88
2023/07/02 03:38:57;;;;;;;17.98;9.07;;;;;;;15.63;80.49;100713.13;5030010;28;20017;-88
2023/07/02 03:41:22;;;;;;;18.17;8.30;;;;;;;15.59;80.01;100715.06;5029840;28;20060;-88
2023/07/02 03:43:47;;;;;;;18.67;8.73;;;;;;;15.57;80.15;100716.91;5029914;28;20021;-88
2023/07/02 03:46:13;;;;;;;19.02;8.60;;;;;;;15.55;79.68;100715.31;5029281;28;20077;-88
2023/07/02 03:48:39;;;;;;;19.35;9.48;;;;;;;15.54;80.18;100717.06;5030296;28;20030;-88
2023/07/02 03:51:04;;;;;;;18.15;8.90;;;;;;;15.53;79.94;100725.88;5012773;28;21225;-89
2023/07/02 03:53:29;;;;;;;16.95;8.45;;;;;;;15.52;79.88;100724.19;5030946;28;20034;-88
2023/07/02 03:55:54;;;;;;;20.52;8.57;;;;;;;15.52;80.24;100728.56;5027326;28;20036;-88
2023/07/02 03:58:20;;;;;;;17.88;8.40;;;;;;;15.51;80.11;100726.84;5027490;28;20034;-88
2023/07/02 04:00:45;;;;;;;16.33;8.48;;;;;;;15.49;80.11;100726.94;5029517;28;20061;-88
2023/07/02 04:03:10;;;;;;;18.35;9.02;;;;;;;15.50;80.01;100741.75;5029013;28;20437;-88
2023/07/02 04:05:36;;;;;;;19.20;8.75;;;;;;;15.48;79.79;100735.72;5027582;28;20511;-88
2023/07/02 04:08:01;;;;;;;20.05;8.65;;;;;;;15.48;80.11;100733.09;5029233;28;20075;-88
2023/07/02 04:10:26;;;;;;;17.13;8.75;;;;;;;15.49;80.27;100729.56;5029523;28;20523;-88
2023/07/02 04:12:51;;;;;;;17.75;8.88;;;;;;;15.47;80.63;100729.63;5028435;28;20029;-88
2023/07/02 04:15:17;;;;;;;18.02;8.73;;;;;;;15.46;80.31;100740.19;5028772;28;20514;-88
2023/07/02 04:17:42;;;;;;;19.40;9.73;;;;;;;15.45;80.34;100734.13;5027884;28;20029;-88
2023/07/02 04:20:08;;;;;;;20.83;9.68;;;;;;;15.45;80.41;100738.50;5030164;28;20025;-88
2023/07/02 04:22:33;;;;;;;18.15;9.73;;;;;;;15.44;80.34;100742.03;5028444;28;20021;-88
2023/07/02 04:24:59;;;;;;;20.23;9.55;;;;;;;15.43;80.39;100737.72;5027731;28;20414;-88
2023/07/02 04:27:24;;;;;;;16.88;9.50;;;;;;;15.40;80.06;100738.72;5028723;28;20132;-87
2023/07/02 04:29:49;;;;;;;20.63;9.77;;;;;;;15.38;79.82;100743.19;5031077;28;20071;-88
2023/07/02 04:32:14;;;;;;;19.15;9.32;;;;;;;15.39;80.26;100749.25;5028141;28;20030;-88
2023/07/02 04:34:41;;;;;;;18.95;9.48;;;;;;;15.40;79.83;100751.81;5027640;28;20043;-88
2023/07/02 04:37:06;;;;;;;17.02;9.52;;;;;;;15.39;79.70;100754.50;5029325;28;20025;-89
2023/07/02 04:39:32;;;;;;;18.38;8.90;;;;;;;15.38;79.31;100752.81;5030643;28;20032;-88
2023/07/02 04:41:57;;;;;;;18.23;9.85;;;;;;;15.41;79.03;100755.28;5028605;28;20017;-88
2023/07/02 04:44:29;;;;;;;21.25;8.52;;;;;;;15.42;78.30;100759.59;5029857;28;20053;-88
2023/07/02 04:47:01;;;;;;;18.10;9.02;;;;;;;15.45;78.43;100759.47;5030121;28;20300;-88
2023/07/02 04:49:27;;;;;;;18.92;8.90;;;;;;;15.46;77.67;100763.78;5029923;28;20083;-87
2023/07/02 04:51:53;;;;;;;18.27;9.20;;;;;;;15.47;77.37;100770.72;5027529;28;20025;-88
2023/07/02 04:54:22;;;;;;;17.75;9.43;;;;;;;15.47;76.04;100778.59;5029447;28;20025;-87
2023/07/02 04:56:48;;;;;;;19.23;8.70;;;;;;;15.48;75.80;100775.88;5029848;28;20063;-92
2023/07/02 04:59:13;;;;;;;16.45;9.18;;;;;;;15.51;75.24;100767.03;5028267;28;20053;-90
2023/07/02 05:01:39;;;;;;;17.60;8.77;;;;;;;15.53;74.62;100766.97;5028782;28;20028;-91
2023/07/02 05:04:05;;;;;;;20.60;8.98;;;;;;;15.57;75.19;100774.59;5027387;28;20434;-89
2023/07/02 05:06:31;;;;;;;18.55;8.80;;;;;;;15.62;74.03;100775.25;5026356;28;20038;-90
2023/07/02 05:08:56;;;;;;;15.73;8.00;;;;;;;15.66;73.08;100778.56;5026620;28;20022;-91
2023/07/02 05:11:21;;;;;;;15.68;7.03;;;;;;;15.68;71.84;100781.13;5026079;28;20029;-91
2023/07/02 05:13:46;;;;;;;16.65;7.55;;;;;;;15.70;71.42;100777.50;5027929;28;20040;-89
2023/07/02 05:16:12;;;;;;;12.90;7.05;;;;;;;15.72;71.10;100788.75;5026393;28;20112;-88
2023/07/02 05:18:37;;;;;;;14.98;7.15;;;;;;;15.75;70.45;100785.13;5026033;28;20041;-89
2023/07/02 05:21:02;;;;;;;14.75;6.38;;;;;;;15.76;68.51;100794.69;5030159;28;20091;-90
2023/07/02 05:23:27;;;;;;;14.30;6.05;;;;;;;15.76;68.56;100787.69;5025989;28;20505;-92
2023/07/02 05:25:53;;;;;;;12.27;6.10;;;;;;;15.78;67.89;100792.84;5009318;28;20544;-91
2023/07/02 05:28:18;;;;;;;14.75;6.18;;;;;;;15.81;68.39;100789.22;5034594;28;20121;-91
2023/07/02 05:30:43;;;;;;;13.75;5.88;;;;;;;15.83;67.33;100790.88;5033446;28;20030;-90
2023/07/02 05:33:09;;;;;;;14.63;5.53;;;;;;;15.85;67.98;100791.69;5032295;28;20132;-90
2023/07/02 05:35:34;;;;;;;12.95;5.70;;;;;;;15.87;67.83;100812.56;5030292;28;20033;-91
2023/07/02 05:37:59;;;;;;;11.13;5.50;;;;;;;15.89;67.23;100808.09;5033232;28;20025;-90
2023/07/02 05:40:25;;;;;;;11.60;5.75;;;;;;;15.93;66.81;100817.53;5032626;28;20060;-91
2023/07/02 05:42:50;;;;;;;14.73;5.40;;;;;;;15.98;66.40;100819.94;5032544;28;20044;-89
2023/07/02 05:45:15;;;;;;;13.32;5.57;;;;;;;16.02;66.83;100816.25;5030815;28;20036;-93
2023/07/02 05:47:41;;;;;;;13.07;5.65;;;;;;;16.05;67.23;100821.34;5034027;28;20101;-88
2023/07/02 05:50:08;;;;;;;13.68;5.57;;;;;;;16.10;67.23;100824.56;5031160;28;20460;-90
2023/07/02 05:52:33;;;;;;;11.70;5.38;;;;;;;16.15;66.79;100819.09;5032833;28;20116;-90
2023/07/02 05:54:59;;;;;;;16.20;5.78;;;;;;;16.18;66.34;100822.44;5029667;28;20557;-90
2023/07/02 05:57:24;;;;;;;14.75;5.97;;;;;;;16.21;66.74;100826.66;5028920;28;20021;-91
2023/07/02 05:59:49;;;;;;;12.70;5.25;;;;;;;16.24;66.22;100824.72;5033475;28;20057;-91
2023/07/02 06:02:15;;;;;;;13.00;6.05;;;;;;;16.28;66.15;100827.22;5032878;28;20408;-91
2023/07/02 06:04:40;;;;;;;14.00;5.68;;;;;;;16.32;66.04;100828.75;5029672;28;20081;-90
2023/07/02 06:07:05;;;;;;;13.25;5.82;;;;;;;16.33;65.95;100830.47;5030842;28;20377;-91
2023/07/02 06:09:32;;;;;;;14.23;5.75;;;;;;;16.33;64.70;100836.53;5033000;28;20029;-92
2023/07/02 06:11:58;;;;;;;12.00;5.78;;;;;;;16.34;64.62;100832.16;5031855;28;20071;-90
2023/07/02 06:14:25;;;;;;;12.60;5.45;;;;;;;16.34;65.86;100835.63;5032025;28;20032;-89
2023/07/02 06:16:51;;;;;;;14.60;5.93;;;;;;;16.35;64.37;100849.63;5030464;28;20059;-89
2023/07/02 06:19:16;;;;;;;14.18;4.88;;;;;;;16.30;64.94;100841.97;5030979;28;20108;-90
2023/07/02 06:21:41;;;;;;;12.63;5.82;;;;;;;16.32;65.03;100844.50;5032056;28;20392;-87
2023/07/02 06:24:06;;;;;;;11.48;5.20;;;;;;;16.32;64.68;100853.22;5030713;28;20063;-91
2023/07/02 06:26:32;;;;;;;13.48;5.68;;;;;;;16.34;64.41;100853.16;5014114;28;20109;-90
2023/07/02 06:28:58;;;;;;;12.75;5.53;;;;;;;16.37;64.67;100860.91;5030392;28;20476;-90
2023/07/02 06:31:23;;;;;;;12.15;4.93;;;;;;;16.41;64.34;100859.78;5031112;28;20025;-89
2023/07/02 06:33:48;;;;;;;12.27;5.20;;;;;;;16.46;64.77;100852.53;5032671;28;20029;-87
2023/07/02 06:36:14;;;;;;;11.73;5.13;;;;;;;16.54;63.17;100871.41;5028833;28;20477;-88
2023/07/02 06:38:40;;;;;;;11.60;4.63;;;;;;;16.59;63.45;100859.78;5029036;28;20021;-88
2023/07/02 06:41:05;;;;;;;11.65;5.28;;;;;;;16.65;63.62;100862.94;5030451;28;20033;-91
2023/07/02 06:43:30;;;;;;;9.75;4.78;;;;;;;16.68;63.18;100856.72;5027556;28;20033;-91
2023/07/02 06:45:56;;;;;;;13.88;5.22;;;;;;;16.73;63.69;100869.59;5030711;28;20025;-89
2023/07/02 06:48:21;;;;;;;11.60;4.72;;;;;;;16.77;62.30;100865.91;5029169;28;20491;-91
2023/07/02 06:50:47;;;;;;;13.48;4.60;;;;;;;16.80;62.68;100871.84;5029695;28;20104;-89
2023/07/02 06:53:12;;;;;;;10.18;4.88;;;;;;;16.84;63.01;100873.38;5031846;28;20028;-88
2023/07/02 06:55:38;;;;;;;10.77;4.25;;;;;;;16.87;62.41;100876.78;5030905;28;20033;-89
2023/07/02 06:58:05;;;;;;;12.32;4.55;;;;;;;16.92;63.26;100880.00;5028917;28;20033;-89
2023/07/02 07:00:35;;;;;;;12.20;4.75;;;;;;;16.94;62.86;100888.66;5029639;28;20025;-90
2023/07/02 07:03:02;;;;;;;10.13;4.38;;;;;;;16.97;62.00;100892.03;5028367;28;20033;-91
2023/07/02 07:05:28;;;;;;;11.02;4.28;;;;;;;17.01;61.86;100884.81;5027897;28;20085;-94
2023/07/02 07:07:54;;;;;;;12.05;4.45;;;;;;;17.06;61.74;100895.09;5026757;28;20468;-89
2023/07/02 07:10:20;;;;;;;9.90;4.22;;;;;;;17.09;61.38;100887.88;5031491;28;20039;-94
2023/07/02 07:12:45;;;;;;;12.32;4.63;;;;;;;17.12;59.71;100893.00;5032365;28;20033;-91
2023/07/02 07:15:10;;;;;;;14.55;5.10;;;;;;;17.14;60.14;100898.19;5031698;28;20033;-89
2023/07/02 07:17:36;;;;;;;11.32;4.57;;;;;;;17.17;61.09;100898.00;5031200;28;20472;-90
2023/07/02 07:20:04;;;;;;;11.35;4.45;;;;;;;17.22;60.12;100897.78;5032513;28;20029;-90
2023/07/02 07:22:30;;;;;;;9.80;4.03;;;;;;;17.27;59.33;100906.25;5032258;28;20561;-91
2023/07/02 07:24:55;;;;;;;10.50;4.10;;;;;;;17.30;57.79;100911.34;5029297;28;20063;-92
2023/07/02 07:27:20;;;;;;;13.23;5.00;;;;;;;17.35;59.11;100906.72;5028151;28;20042;-90
2023/07/02 07:29:45;;;;;;;8.82;3.70;;;;;;;17.40;58.33;100907.31;5031466;28;20053;-92
2023/07/02 07:32:11;;;;;;;8.40;3.92;;;;;;;17.47;58.96;100918.34;5029588;28;20044;-92
2023/07/02 07:34:36;;;;;;;9.73;4.00;;;;;;;17.50;57.52;100917.34;5029854;28;20032;-90
2023/07/02 07:37:01;;;;;;;10.43;3.88;;;;;;;17.51;58.42;100919.03;5012794;28;20033;-93
2023/07/02 07:39:26;;;;;;;11.85;4.30;;;;;;;17.53;57.90;100922.44;5031075;28;20037;-94
2023/07/02 07:41:52;;;;;;;9.05;4.13;;;;;;;17.55;57.64;100936.34;5030296;28;20041;-91
2023/07/02 07:44:17;;;;;;;9.00;4.30;;;;;;;17.55;58.08;100928.47;5030729;28;20051;-91
2023/07/02 07:46:42;;;;;;;10.23;4.30;;;;;;;17.58;57.16;100921.25;5027155;28;20048;-96
2023/07/02 07:49:08;;;;;;;10.38;4.05;;;;;;;17.60;58.21;100924.66;5035291;28;20025;-94
2023/07/02 07:51:35;;;;;;;8.63;3.55;;;;;;;17.64;56.62;100930.59;5031655;28;20037;-90
2023/07/02 07:54:00;;;;;;;10.90;4.45;;;;;;;17.65;57.47;100924.38;5030852;28;20048;-90
2023/07/02 07:56:26;;;;;;;13.43;4.18;;;;;;;17.65;56.11;100947.25;5012887;28;20457;-93
2023/07/02 07:58:51;;;;;;;9.15;4.10;;;;;;;17.57;56.09;100942.38;5012712;28;20052;-93
2023/07/02 08:01:16;;;;;;;9.20;4.20;;;;;;;17.54;55.40;100946.00;5027712;28;20087;-93
2023/07/02 08:03:42;;;;;;;10.60;4.22;;;;;;;17.51;55.05;100934.81;5027816;28;20047;-92
2023/07/02 08:06:07;;;;;;;10.35;3.80;;;;;;;17.50;56.45;100943.63;5028611;28;20013;-91
2023/07/02 08:08:32;;;;;;;10.00;3.92;;;;;;;17.50;57.14;100939.25;5027453;28;20021;-91
2023/07/02 08:10:57;;;;;;;9.80;3.85;;;;;;;17.51;56.22;100946.16;5031039;28;20033;-92
2023/07/02 08:13:26;;;;;;;9.70;4.07;;;;;;;17.50;54.32;100944.50;5014751;28;20035;-94
2023/07/02 08:15:51;;;;;;;12.50;3.58;;;;;;;17.50;56.59;100948.91;5027199;28;20048;-90
2023/07/02 08:18:16;;;;;;;10.88;3.95;;;;;;;17.55;56.25;100952.13;5026144;28;20461;-91
2023/07/02 08:20:41;;;;;;;9.75;3.63;;;;;;;17.57;54.98;100958.16;5025438;28;20021;-92
2023/07/02 08:23:07;;;;;;;7.80;3.80;;;;;;;17.67;53.24;100961.16;5028265;28;20064;-94
2023/07/02 08:25:32;;;;;;;9.10;3.95;;;;;;;17.71;52.25;100953.00;5029990;28;20022;-93
2023/07/02 08:27:58;;;;;;;7.88;3.60;;;;;;;17.73;51.95;100956.41;5031350;28;20056;-94
2023/07/02 08:30:23;;;;;;;10.88;3.85;;;;;;;17.71;51.85;100962.66;5030422;28;20021;-94
2023/07/02 08:32:48;;;;;;;8.32;3.38;;;;;;;17.66;50.67;100955.03;5026125;28;20048;-89
2023/07/02 08:35:14;;;;;;;9.15;3.63;;;;;;;17.62;49.40;100971.91;5026047;28;20475;-91
2023/07/02 08:37:39;;;;;;;6.45;3.53;;;;;;;17.59;51.19;100969.47;5027233;28;20534;-95
2023/07/02 08:40:05;;;;;;;8.40;3.30;;;;;;;17.59;51.84;100969.47;5025562;28;20530;-94
2023/07/02 08:42:33;;;;;;;7.72;3.58;;;;;;;17.59;51.89;100980.00;5011057;28;20022;-91
2023/07/02 08:45:00;;;;;;;8.05;3.40;;;;;;;17.66;50.82;100970.81;5027411;28;20381;-88
2023/07/02 08:47:25;;;;;;;10.85;3.40;;;;;;;17.68;51.72;100979.47;5027998;28;20030;-90
2023/07/02 08:49:51;;;;;;;8.73;3.58;;;;;;;17.68;52.49;100974.22;5028079;28;20018;-89
2023/07/02 08:52:16;;;;;;;8.80;3.85;;;;;;;17.75;53.19;100980.00;5031143;28;20490;-89
2023/07/02 08:54:42;;;;;;;9.65;3.50;;;;;;;17.87;52.15;100976.69;5024529;28;20025;-90
2023/07/02 08:57:09;;;;;;;8.00;4.03;;;;;;;17.88;51.60;100967.88;5026102;28;20049;-89
2023/07/02 08:59:36;;;;;;;10.82;3.78;;;;;;;17.89;51.85;100971.38;5022217;28;20037;-91
2023/07/02 09:02:01;;;;;;;10.63;3.60;;;;;;;17.88;52.20;100974.94;5023222;28;20112;-93
2023/07/02 09:04:28;;;;;;;9.25;3.63;;;;;;;17.92;51.42;100976.47;5022985;28;20117;-89
2023/07/02 09:07:07;;;;;;;8.75;3.88;;;;;;;18.02;52.65;100976.81;5028047;28;20029;-89
2023/07/02 09:09:44;;;;;;;11.68;4.03;;;;;;;18.01;49.36;100970.72;5026738;28;20021;-89
2023/07/02 09:12:09;;;;;;;10.50;4.10;;;;;;;17.96;50.68;100972.72;5029314;28;20075;-90
2023/07/02 09:14:34;;;;;;;7.97;3.55;;;;;;;17.92;49.47;100980.88;5029509;28;20072;-89
2023/07/02 09:17:08;;;;;;;10.57;3.78;;;;;;;17.93;50.37;100978.16;5024476;28;20022;-92
2023/07/02 09:19:34;;;;;;;10.20;3.65;;;;;;;18.02;50.41;100971.56;5027265;28;20388;-91
2023/07/02 09:22:03;;;;;;;9.80;3.45;;;;;;;18.17;52.22;100976.00;5023733;28;20029;-90
2023/07/02 09:24:30;;;;;;;9.85;3.78;;;;;;;18.29;50.70;100966.53;5028737;28;20022;-90
2023/07/02 09:26:57;;;;;;;7.05;3.50;;;;;;;18.35;51.46;100973.25;5028276;28;20048;-90
2023/07/02 09:29:29;;;;;;;11.30;4.38;;;;;;;18.44;51.38;100977.16;5007179;28;20104;-89
2023/07/02 09:31:59;;;;;;;7.60;3.80;;;;;;;18.45;49.63;100968.28;5025355;28;20524;-88
2023/07/02 09:34:31;;;;;;;11.38;4.00;;;;;;;18.47;52.74;100971.69;5029493;28;20044;-90
2023/07/02 09:36:58;;;;;;;8.90;4.07;;;;;;;18.47;51.93;100972.56;5028006;28;20029;-89
2023/07/02 09:39:28;;;;;;;9.20;3.83;;;;;;;18.46;52.10;100970.00;5023613;28;20030;-90
2023/07/02 09:42:00;;;;;;;16.23;4.55;;;;;;;18.41;51.55;100961.53;5025781;28;20056;-89
2023/07/02 09:44:29;;;;;;;8.60;3.78;;;;;;;18.39;52.00;100961.59;5025512;28;20033;-90
2023/07/02 09:47:04;;;;;;;9.07;3.92;;;;;;;18.45;53.06;100963.03;5019497;28;20061;-94
2023/07/02 09:49:52;;;;;;;9.77;4.10;;;;;;;18.53;51.65;100965.25;5022247;28;20105;-92
2023/07/02 09:52:18;;;;;;;7.65;3.67;;;;;;;18.60;52.16;100964.81;5021543;28;20033;-92
2023/07/02 09:54:44;;;;;;;12.60;3.85;;;;;;;18.61;49.97;100965.63;5020938;28;20120;-92
2023/07/02 09:57:10;;;;;;;10.88;4.35;;;;;;;18.58;51.38;100963.19;5019133;28;20125;-90
2023/07/02 09:59:35;;;;;;;8.45;4.05;;;;;;;18.61;51.11;100963.88;5023753;28;20476;-90
2023/07/02 10:02:01;;;;;;;7.97;3.42;;;;;;;18.66;51.00;100969.72;5022953;28;20472;-89
2023/07/02 10:04:26;;;;;;;9.02;3.83;;;;;;;18.79;52.17;100967.22;5025794;28;20037;-91
2023/07/02 10:06:55;;;;;;;8.70;3.78;;;;;;;18.91;51.15;100972.69;5025193;28;20085;-93
2023/07/02 10:09:35;;;;;;;9.10;3.78;;;;;;;18.95;51.68;100977.75;5024655;28;20391;-90
2023/07/02 10:12:00;;;;;;;8.75;3.97;;;;;;;18.94;50.72;100981.31;5024213;28;20436;-90
2023/07/02 10:14:25;;;;;;;9.02;3.53;;;;;;;18.94;50.17;100994.50;5026165;28;20053;-87
2023/07/02 10:16:52;;;;;;;9.23;3.70;;;;;;;19.00;49.74;100995.06;5028806;28;20082;-89
2023/07/02 10:19:18;;;;;;;12.70;4.40;;;;;;;19.01;50.59;100999.41;5022871;28;20018;-89
2023/07/02 10:21:46;;;;;;;8.75;3.33;;;;;;;19.00;49.90;100995.06;5024963;28;20025;-89
2023/07/02 10:24:13;;;;;;;8.20;3.45;;;;;;;18.94;49.75;100990.97;5024601;28;20036;-92
2023/07/02 10:26:39;;;;;;;10.43;4.18;;;;;;;18.87;49.90;100987.84;5024650;28;22642;-94
2023/07/02 10:29:06;;;;;;;8.57;3.80;;;;;;;18.84;50.11;100993.28;5024011;28;20120;-94
2023/07/02 10:31:31;;;;;;;8.00;3.53;;;;;;;18.81;50.66;100994.34;5020972;28;20034;-93
2023/07/02 10:33:57;;;;;;;8.77;3.72;;;;;;;18.74;50.05;100995.63;5026189;28;20025;-89
2023/07/02 10:36:24;;;;;;;12.52;3.83;;;;;;;18.65;50.60;101007.53;5022402;28;20113;-88
2023/07/02 10:38:50;;;;;;;7.95;3.58;;;;;;;18.53;51.27;101002.13;5024779;28;20033;-89
2023/07/02 10:41:29;;;;;;;11.80;3.80;;;;;;;18.44;52.38;101001.72;5024282;28;20083;-91
2023/07/02 10:44:04;;;;;;;8.52;3.55;;;;;;;18.39;51.77;101011.63;5025555;28;20067;-90
2023/07/02 10:46:29;;;;;;;7.97;3.78;;;;;;;18.35;51.47;101013.59;5025419;28;20048;-93
2023/07/02 10:48:56;;;;;;;8.68;3.58;;;;;;;18.34;51.81;101019.81;5026675;28;20056;-94
2023/07/02 10:51:23;;;;;;;7.47;3.83;;;;;;;18.30;51.39;101022.72;5030349;28;20108;-92
2023/07/02 10:54:04;;;;;;;10.80;3.67;;;;;;;18.24;52.25;101026.53;5026438;28;20036;-91
2023/07/02 10:56:30;;;;;;;8.65;3.92;;;;;;;18.16;51.96;101020.81;5027102;28;20025;-91
2023/07/02 10:58:55;;;;;;;10.70;4.18;;;;;;;18.10;52.07;101016.75;5028393;28;20040;-91
2023/07/02 11:01:25;;;;;;;12.15;3.90;;;;;;;18.12;53.93;101009.63;5026477;28;20021;-94
2023/07/02 11:03:58;;;;;;;8.80;3.70;;;;;;;18.24;52.38;101007.22;5025459;28;20029;-90
2023/07/02 11:06:23;;;;;;;9.65;4.50;;;;;;;18.28;53.96;100999.06;5025469;28;20483;-91
2023/07/02 11:08:49;;;;;;;10.40;4.20;;;;;;;18.35;52.21;101010.97;5026541;28;20033;-91
2023/07/02 11:11:14;;;;;;;10.07;4.32;;;;;;;18.40;51.41;101013.34;5025315;28;20017;-90
2023/07/02 11:13:47;;;;;;;10.45;4.22;;;;;;;18.45;52.12;101005.19;5025914;28;20378;-90
2023/07/02 11:16:29;;;;;;;11.82;4.40;;;;;;;18.58;52.96;101013.25;5024917;28;20037;-92